createdAt,value
2023-03-22T00:02:12.950Z,585.00
2023-03-22T00:06:13.020Z,588.00
2023-03-22T00:10:13.067Z,588.00
2023-03-22T00:14:13.179Z,592.00
2023-03-22T00:18:13.276Z,590.00
2023-03-22T00:22:13.434Z,596.00
2023-03-22T00:26:13.546Z,602.00
2023-03-22T00:30:13.709Z,595.00
2023-03-22T00:34:13.836Z,602.00
2023-03-22T00:38:13.918Z,603.00
2023-03-22T00:42:14.072Z,597.00
2023-03-22T00:46:14.376Z,600.00
2023-03-22T00:50:14.253Z,606.00
2023-03-22T00:54:14.463Z,606.00
2023-03-22T00:58:14.532Z,605.00
2023-03-22T01:02:14.646Z,606.00
2023-03-22T01:06:14.746Z,607.00
2023-03-22T01:10:14.896Z,606.00
2023-03-22T01:14:15.031Z,610.00
2023-03-22T01:18:15.118Z,612.00
2023-03-22T01:22:15.219Z,609.00
2023-03-22T01:26:15.304Z,614.00
2023-03-22T01:30:15.444Z,614.00
2023-03-22T01:34:15.645Z,615.00
2023-03-22T01:38:15.696Z,612.00
2023-03-22T01:42:15.805Z,615.00
2023-03-22T01:46:15.968Z,621.00
2023-03-22T01:50:15.961Z,614.00
2023-03-22T01:54:16.127Z,611.00
2023-03-22T01:58:16.252Z,620.00
2023-03-22T02:02:16.399Z,618.00
2023-03-22T02:06:16.510Z,621.00
2023-03-22T02:10:16.709Z,627.00
2023-03-22T02:14:16.847Z,619.00
2023-03-22T02:18:16.886Z,622.00
2023-03-22T02:22:17.084Z,618.00
2023-03-22T02:26:17.165Z,624.00
2023-03-22T02:30:17.259Z,625.00
2023-03-22T02:34:17.364Z,620.00
2023-03-22T02:38:17.495Z,627.00
2023-03-22T02:42:17.671Z,623.00
2023-03-22T02:46:17.721Z,626.00
2023-03-22T02:50:17.888Z,622.00
2023-03-22T02:54:17.961Z,628.00
2023-03-22T02:58:18.040Z,621.00
2023-03-22T03:02:18.159Z,626.00
2023-03-22T03:06:18.321Z,627.00
2023-03-22T03:10:18.465Z,632.00
2023-03-22T03:14:18.580Z,628.00
2023-03-22T03:18:18.638Z,628.00
2023-03-22T03:22:18.784Z,627.00
2023-03-22T03:26:18.914Z,630.00
2023-03-22T03:30:19.021Z,634.00
2023-03-22T03:34:19.217Z,629.00
2023-03-22T03:38:19.290Z,632.00
2023-03-22T03:42:19.362Z,627.00
2023-03-22T03:46:19.470Z,627.00
2023-03-22T03:50:19.623Z,634.00
2023-03-22T03:54:19.726Z,631.00
2023-03-22T03:58:19.810Z,636.00
2023-03-22T04:02:19.941Z,634.00
2023-03-22T04:06:20.070Z,634.00
2023-03-22T04:10:20.183Z,635.00
2023-03-22T04:14:20.305Z,635.00
2023-03-22T04:18:20.461Z,632.00
2023-03-22T04:22:20.537Z,631.00
2023-03-22T04:26:20.668Z,629.00
2023-03-22T04:30:20.776Z,639.00
2023-03-22T04:34:20.893Z,638.00
2023-03-22T04:38:21.080Z,628.00
2023-03-22T04:42:21.135Z,635.00
2023-03-22T04:46:21.382Z,637.00
2023-03-22T04:50:21.336Z,635.00
2023-03-22T04:54:21.868Z,631.00
2023-03-22T04:58:21.586Z,625.00
2023-03-22T05:02:21.735Z,638.00
2023-03-22T05:06:21.793Z,638.00
2023-03-22T05:10:21.875Z,614.00
2023-03-22T05:14:22.013Z,591.00
2023-03-22T05:18:22.034Z,583.00
2023-03-22T05:22:22.171Z,574.00
2023-03-22T05:26:22.248Z,562.00
2023-03-22T05:30:22.378Z,552.00
2023-03-22T05:34:22.504Z,540.00
2023-03-22T05:38:22.572Z,535.00
2023-03-22T05:42:22.631Z,542.00
2023-03-22T05:46:22.825Z,545.00
2023-03-22T05:50:22.864Z,549.00
2023-03-22T05:54:23.355Z,553.00
2023-03-22T05:58:23.086Z,542.00
2023-03-22T06:02:23.155Z,537.00
2023-03-22T06:06:23.354Z,532.00
2023-03-22T06:10:23.417Z,526.00
2023-03-22T06:14:23.613Z,524.00
2023-03-22T06:18:23.769Z,520.00
2023-03-22T06:22:23.770Z,552.00
2023-03-22T06:26:23.844Z,628.00
2023-03-22T06:30:23.968Z,568.00
2023-03-22T06:34:24.080Z,543.00
2023-03-22T06:38:24.314Z,532.00
2023-03-22T06:42:24.374Z,529.00
2023-03-22T06:46:24.409Z,535.00
2023-03-22T06:50:25.425Z,528.00
2023-03-22T06:54:24.898Z,525.00
2023-03-22T06:58:26.360Z,515.00
2023-03-22T07:02:24.974Z,531.00
2023-03-22T07:06:24.815Z,531.00
2023-03-22T07:10:24.905Z,534.00
2023-03-22T07:14:25.078Z,507.00
2023-03-22T07:18:25.127Z,508.00
2023-03-22T07:22:25.303Z,505.00
2023-03-22T07:26:25.467Z,511.00
2023-03-22T07:30:25.494Z,511.00
2023-03-22T07:34:25.656Z,505.00
2023-03-22T07:38:25.733Z,506.00
2023-03-22T07:42:25.875Z,513.00
2023-03-22T07:46:26.433Z,501.00
2023-03-22T07:50:26.135Z,500.00
2023-03-22T07:54:33.794Z,511.00
2023-03-22T07:58:27.214Z,509.00
2023-03-22T08:02:26.262Z,500.00
2023-03-22T08:06:26.271Z,526.00
2023-03-22T08:10:26.500Z,529.00
2023-03-22T08:14:36.035Z,526.00
2023-03-22T08:18:27.614Z,529.00
2023-03-22T08:22:28.450Z,528.00
2023-03-22T08:26:26.525Z,499.00
2023-03-22T08:30:26.783Z,500.00
2023-03-22T08:34:26.901Z,501.00
2023-03-22T08:38:27.075Z,544.00
2023-03-22T08:42:27.241Z,591.00
2023-03-22T08:46:27.401Z,604.00
2023-03-22T08:50:27.450Z,612.00
2023-03-22T08:54:27.893Z,624.00
2023-03-22T08:58:27.649Z,625.00
2023-03-22T09:02:27.847Z,635.00
2023-03-22T09:06:27.924Z,624.00
2023-03-22T09:10:28.063Z,637.00
2023-03-22T09:14:28.194Z,632.00
2023-03-22T09:18:28.322Z,618.00
2023-03-22T09:22:28.418Z,612.00
2023-03-22T09:26:28.962Z,606.00
2023-03-22T09:30:28.661Z,622.00
2023-03-22T09:34:28.791Z,620.00
2023-03-22T09:38:28.977Z,620.00
2023-03-22T09:42:28.988Z,618.00
2023-03-22T09:46:29.276Z,621.00
2023-03-22T09:50:29.402Z,627.00
2023-03-22T09:54:29.280Z,625.00
2023-03-22T09:58:29.399Z,638.00
2023-03-22T10:02:29.485Z,624.00
2023-03-22T10:06:29.641Z,633.00
2023-03-22T10:10:29.540Z,616.00
2023-03-22T10:14:29.569Z,616.00
2023-03-22T10:18:29.638Z,595.00
2023-03-22T10:22:29.662Z,576.00
2023-03-22T10:26:29.706Z,586.00
2023-03-22T10:30:29.737Z,598.00
2023-03-22T10:34:29.813Z,593.00
2023-03-22T10:38:29.947Z,577.00
2023-03-22T10:42:29.979Z,593.00
2023-03-22T10:46:30.114Z,580.00
2023-03-22T10:50:30.167Z,584.00
2023-03-22T10:54:30.499Z,566.00
2023-03-22T10:58:30.403Z,533.00
2023-03-22T11:02:30.606Z,501.00
2023-03-22T11:06:30.665Z,531.00
2023-03-22T11:10:31.565Z,632.00
2023-03-22T11:14:30.712Z,829.00
2023-03-22T11:18:31.060Z,711.00
2023-03-22T11:22:31.080Z,500.00
2023-03-22T11:26:31.092Z,581.00
2023-03-22T11:30:31.059Z,922.00
2023-03-22T11:34:31.642Z,1020.00
2023-03-22T11:38:31.109Z,996.00
2023-03-22T11:42:31.170Z,986.00
2023-03-22T11:46:31.217Z,1055.00
2023-03-22T11:50:31.371Z,1074.00
2023-03-22T11:54:31.506Z,1104.00
2023-03-22T11:58:31.665Z,1122.00
2023-03-22T12:02:31.996Z,1076.00
2023-03-22T12:06:32.032Z,1090.00
2023-03-22T12:10:32.126Z,1144.00
2023-03-22T12:14:32.412Z,962.00
2023-03-22T12:18:32.512Z,1143.00
2023-03-22T12:22:32.618Z,1204.00
2023-03-22T12:26:32.773Z,1257.00
2023-03-22T12:30:32.955Z,1220.00
2023-03-22T12:34:33.076Z,1235.00
2023-03-22T12:38:33.281Z,1202.00
2023-03-22T12:42:34.947Z,1225.00
2023-03-22T12:46:33.401Z,1175.00
2023-03-22T12:50:33.350Z,1289.00
2023-03-22T12:54:33.281Z,1393.00
2023-03-22T12:58:33.281Z,1516.00
2023-03-22T13:02:33.375Z,1381.00
2023-03-22T13:06:33.259Z,1378.00
2023-03-22T13:10:33.247Z,1581.00
2023-03-22T13:14:33.385Z,1644.00
2023-03-22T13:18:33.760Z,1741.00
2023-03-22T13:22:33.736Z,1766.00
2023-03-22T13:26:33.901Z,1702.00
2023-03-22T13:30:34.031Z,1567.00
2023-03-22T13:34:34.172Z,1673.00
2023-03-22T13:38:34.332Z,1531.00
2023-03-22T13:42:34.544Z,1349.00
2023-03-22T13:46:34.709Z,1258.00
2023-03-22T13:50:34.785Z,1270.00
2023-03-22T13:54:34.931Z,1269.00
2023-03-22T13:58:34.991Z,1298.00
2023-03-22T14:02:37.411Z,1326.00
2023-03-22T14:06:35.552Z,1317.00
2023-03-22T14:10:35.495Z,1349.00
2023-03-22T14:14:35.618Z,1361.00
2023-03-22T14:18:35.681Z,1404.00
2023-03-22T14:47:36.356Z,500.00
2023-03-22T14:51:36.073Z,500.00
2023-03-22T14:55:36.056Z,523.00
2023-03-22T14:59:35.983Z,522.00
2023-03-22T15:03:37.255Z,512.00
2023-03-22T15:07:35.922Z,539.00
2023-03-22T15:11:35.891Z,566.00
2023-03-22T15:15:35.870Z,557.00
2023-03-22T15:19:35.851Z,561.00
2023-03-22T15:23:35.836Z,554.00
2023-03-22T15:27:35.749Z,543.00
2023-03-22T15:31:35.706Z,520.00
2023-03-22T15:35:36.424Z,518.00
2023-03-22T15:39:35.736Z,503.00
2023-03-22T15:43:35.856Z,506.00
2023-03-22T15:47:36.397Z,511.00
2023-03-22T15:51:36.425Z,521.00
2023-03-22T15:55:36.148Z,537.00
2023-03-22T15:59:36.273Z,521.00
2023-03-22T16:03:36.361Z,512.00
2023-03-22T16:07:36.488Z,515.00
2023-03-22T16:11:36.506Z,518.00
2023-03-22T16:15:36.637Z,510.00
2023-03-22T16:19:36.715Z,512.00
2023-03-22T16:23:36.796Z,546.00
2023-03-22T16:27:37.060Z,533.00
2023-03-22T16:31:38.993Z,503.00
2023-03-22T16:35:39.192Z,473.00
2023-03-22T16:39:37.031Z,500.00
2023-03-22T16:43:37.415Z,514.00
2023-03-22T16:47:37.062Z,538.00
2023-03-22T16:51:37.146Z,540.00
2023-03-22T16:55:37.238Z,584.00
2023-03-22T16:59:37.214Z,617.00
2023-03-22T17:03:37.305Z,637.00
2023-03-22T17:07:37.426Z,649.00
2023-03-22T17:11:37.494Z,656.00
2023-03-22T17:15:37.731Z,666.00
2023-03-22T17:19:37.764Z,671.00
2023-03-22T17:23:37.892Z,666.00
2023-03-22T17:27:38.420Z,678.00
2023-03-22T17:31:38.332Z,799.00
2023-03-22T17:35:38.223Z,662.00
2023-03-22T17:43:39.356Z,663.00
2023-03-22T17:47:41.916Z,665.00
2023-03-22T17:51:39.283Z,664.00
2023-03-22T17:56:08.627Z,652.00
2023-03-22T17:59:39.258Z,660.00
2023-03-22T18:03:38.169Z,663.00
2023-03-22T18:07:38.935Z,679.00
2023-03-22T18:11:38.117Z,663.00
2023-03-22T18:15:38.204Z,663.00
2023-03-22T18:19:38.277Z,690.00
2023-03-22T18:23:38.405Z,704.00
2023-03-22T18:27:47.397Z,697.00
2023-03-22T18:31:39.478Z,709.00
2023-03-22T18:35:38.429Z,690.00
2023-03-22T18:40:20.050Z,667.00
2023-03-22T18:43:39.365Z,682.00
2023-03-22T18:47:38.299Z,657.00
2023-03-22T18:55:42.604Z,765.00
2023-03-22T18:59:38.419Z,975.00
2023-03-22T19:03:38.545Z,1320.00
2023-03-22T19:07:55.132Z,1358.00
2023-03-22T19:11:39.625Z,1226.00
2023-03-22T19:15:44.377Z,1126.00
2023-03-22T19:19:39.570Z,1113.00
2023-03-22T19:23:38.515Z,1109.00
2023-03-22T19:27:38.581Z,1055.00
2023-03-22T19:31:38.613Z,999.00
2023-03-22T19:35:38.849Z,987.00
2023-03-22T19:39:38.921Z,897.00
2023-03-22T19:43:39.076Z,859.00
2023-03-22T19:51:39.150Z,823.00
2023-03-22T19:55:39.228Z,794.00
2023-03-22T19:59:39.133Z,813.00
2023-03-22T20:03:39.052Z,844.00
2023-03-22T20:07:39.013Z,854.00
2023-03-22T20:11:43.630Z,864.00
2023-03-22T20:15:39.836Z,848.00
2023-03-22T20:19:38.944Z,834.00
2023-03-22T20:23:38.864Z,812.00
2023-03-22T20:27:38.824Z,746.00
2023-03-22T20:31:39.002Z,743.00
2023-03-22T20:35:39.315Z,744.00
2023-03-22T20:39:39.471Z,748.00
2023-03-22T20:43:39.518Z,758.00
2023-03-22T20:47:39.689Z,767.00
2023-03-22T20:51:39.819Z,760.00
2023-03-22T20:55:40.148Z,762.00
2023-03-22T20:59:40.143Z,772.00
2023-03-22T21:03:40.277Z,766.00
2023-03-22T21:07:40.496Z,762.00
2023-03-22T21:11:40.718Z,773.00
2023-03-22T21:15:41.077Z,766.00
2023-03-22T21:19:41.050Z,765.00
2023-03-22T21:23:41.221Z,759.00
2023-03-22T21:27:41.379Z,770.00
2023-03-22T21:31:41.543Z,764.00
2023-03-22T21:35:41.875Z,756.00
2023-03-22T21:39:41.878Z,751.00
2023-03-22T21:43:41.998Z,757.00
2023-03-22T21:47:42.132Z,750.00
2023-03-22T21:51:42.355Z,755.00
2023-03-22T21:55:43.726Z,749.00
2023-03-22T21:59:42.616Z,742.00
2023-03-22T22:03:42.809Z,732.00
2023-03-22T22:07:42.939Z,732.00
2023-03-22T22:11:43.080Z,743.00
2023-03-22T22:15:43.298Z,740.00
2023-03-22T22:19:43.336Z,732.00
2023-03-22T22:23:43.485Z,720.00
2023-03-22T22:27:43.622Z,712.00
2023-03-22T22:31:43.698Z,721.00
2023-03-22T22:35:44.085Z,721.00
2023-03-22T22:39:43.902Z,714.00
2023-03-22T22:43:44.064Z,705.00
2023-03-22T22:47:44.068Z,712.00
2023-03-22T22:51:44.176Z,718.00
2023-03-22T22:55:44.233Z,710.00
2023-03-22T22:59:44.378Z,713.00
2023-03-22T23:03:44.561Z,702.00
2023-03-22T23:07:44.605Z,697.00
2023-03-22T23:11:44.682Z,691.00
2023-03-22T23:15:44.815Z,697.00
2023-03-22T23:19:44.888Z,708.00
2023-03-22T23:23:44.953Z,691.00
2023-03-22T23:27:45.892Z,695.00
2023-03-22T23:31:44.886Z,690.00
2023-03-22T23:35:44.878Z,680.00
2023-03-22T23:39:44.771Z,689.00
2023-03-22T23:43:44.854Z,684.00
2023-03-22T23:47:44.889Z,683.00
2023-03-22T23:51:45.013Z,675.00
2023-03-22T23:55:45.078Z,666.00
2023-03-22T23:59:45.183Z,685.00
